Time,TemperatureF,DewpointF,PressureIn,WindDirection,WindDirectionDegrees,WindSpeedMPH,WindSpeedGustMPH,Humidity,HourlyPrecipIn,Conditions,Clouds,dailyrainin,SoftwareType,DateUTC
2013-05-01 00:02:00,33.1,27.6,30.53,SW,225,0.0,0.0,80,0.00,,---,0.00,VWS V14.01,2013-05-01 07:02:00,
2013-05-01 00:07:00,33.1,27.6,30.50,SW,225,0.0,0.0,80,0.00,,---,0.00,VWS V14.01,2013-05-01 07:07:00,
2013-05-01 00:12:00,33.1,27.9,30.50,SW,225,0.0,0.0,81,0.00,,---,0.00,VWS V14.01,2013-05-01 07:12:00,
2013-05-01 00:17:00,32.7,27.5,30.50,SW,225,0.0,0.0,81,0.00,,---,0.00,VWS V14.01,2013-05-01 07:17:00,
2013-05-01 00:22:00,32.7,27.5,30.53,SW,225,0.0,0.0,81,0.00,,---,0.00,VWS V14.01,2013-05-01 07:22:00,
2013-05-01 00:27:00,32.5,27.7,30.53,SW,225,0.0,0.0,82,0.00,,---,0.00,VWS V14.01,2013-05-01 07:27:00,
2013-05-01 00:32:00,32.2,27.3,30.53,SW,225,0.0,0.0,82,0.00,,---,0.00,VWS V14.01,2013-05-01 07:32:00,
2013-05-01 00:37:00,32.4,27.5,30.56,SW,225,0.0,0.0,82,0.00,,---,0.00,VWS V14.01,2013-05-01 07:37:00,
2013-05-01 00:42:00,32.2,27.3,30.56,SW,225,0.0,0.0,82,0.00,,---,0.00,VWS V14.01,2013-05-01 07:42:00,
2013-05-01 00:47:00,31.8,27.3,30.53,SW,225,0.0,0.0,83,0.00,,---,0.00,VWS V14.01,2013-05-01 07:47:00,
2013-05-01 00:52:00,31.6,27.1,30.53,SW,225,0.0,0.0,83,0.00,,---,0.00,VWS V14.01,2013-05-01 07:52:00,
2013-05-01 00:57:00,31.5,27.2,30.53,SW,225,0.0,0.0,84,0.00,,---,0.00,VWS V14.01,2013-05-01 07:57:00,
2013-05-01 01:02:00,31.5,27.2,30.53,SW,225,0.0,0.0,84,0.00,,---,0.00,VWS V14.01,2013-05-01 08:02:00,
2013-05-01 01:08:00,31.1,26.8,30.53,SW,225,0.0,0.0,84,0.00,,---,0.00,VWS V14.01,2013-05-01 08:08:00,
2013-05-01 01:13:00,31.1,26.8,30.53,SW,225,0.0,0.0,84,0.00,,---,0.00,VWS V14.01,2013-05-01 08:13:00,
2013-05-01 01:18:00,31.1,26.8,30.56,SW,225,0.0,0.0,84,0.00,,---,0.00,VWS V14.01,2013-05-01 08:18:00,
2013-05-01 01:23:00,30.9,26.7,30.56,SW,225,0.0,0.0,84,0.00,,---,0.00,VWS V14.01,2013-05-01 08:23:00,
2013-05-01 01:28:00,30.7,26.5,30.56,SW,225,0.0,0.0,84,0.00,,---,0.00,VWS V14.01,2013-05-01 08:28:00,
2013-05-01 01:33:00,30.6,26.6,30.56,SW,225,0.0,0.0,85,0.00,,---,0.00,VWS V14.01,2013-05-01 08:33:00,
2013-05-01 01:38:00,30.4,26.1,30.56,SW,225,0.0,0.0,84,0.00,,---,0.00,VWS V14.01,2013-05-01 08:38:00,
2013-05-01 01:43:00,30.2,26.2,30.56,SW,225,0.0,0.0,85,0.00,,---,0.00,VWS V14.01,2013-05-01 08:43:00,
2013-05-01 01:48:00,30.2,26.2,30.56,SW,225,0.0,0.0,85,0.00,,---,0.00,VWS V14.01,2013-05-01 08:48:00,
2013-05-01 01:53:00,30.2,26.2,30.56,SW,225,0.0,0.0,85,0.00,,---,0.00,VWS V14.01,2013-05-01 08:53:00,
2013-05-01 01:58:00,30.2,26.2,30.56,SW,225,0.0,0.0,85,0.00,,---,0.00,VWS V14.01,2013-05-01 08:58:00,
2013-05-01 02:03:00,30.2,26.5,30.56,SW,225,0.0,0.0,86,0.00,,---,0.00,VWS V14.01,2013-05-01 09:03:00,
2013-05-01 02:08:00,30.0,26.4,30.56,SW,225,0.0,0.0,86,0.00,,---,0.00,VWS V14.01,2013-05-01 09:08:00,
2013-05-01 02:13:00,30.2,26.5,30.56,SW,225,0.0,0.0,86,0.00,,---,0.00,VWS V14.01,2013-05-01 09:13:00,
2013-05-01 02:18:00,30.0,26.4,30.56,SW,225,0.0,0.0,86,0.00,,---,0.00,VWS V14.01,2013-05-01 09:18:00,
2013-05-01 02:23:00,29.8,26.2,30.56,SW,225,0.0,0.0,86,0.00,,---,0.00,VWS V14.01,2013-05-01 09:23:00,
2013-05-01 02:28:00,29.8,26.5,30.56,SW,225,0.0,0.0,87,0.00,,---,0.00,VWS V14.01,2013-05-01 09:28:00,
2013-05-01 02:33:00,29.7,26.3,30.56,SW,225,0.0,0.0,87,0.00,,---,0.00,VWS V14.01,2013-05-01 09:33:00,
2013-05-01 02:38:00,29.7,26.3,30.56,SW,225,0.0,0.0,87,0.00,,---,0.00,VWS V14.01,2013-05-01 09:38:00,
2013-05-01 02:43:00,29.7,26.3,30.56,SW,225,0.0,0.0,87,0.00,,---,0.00,VWS V14.01,2013-05-01 09:43:00,
2013-05-01 02:48:00,29.7,26.3,30.56,SW,225,0.0,0.0,87,0.00,,---,0.00,VWS V14.01,2013-05-01 09:48:00,
2013-05-01 02:53:00,29.5,26.1,30.56,SW,225,0.0,0.0,87,0.00,,---,0.00,VWS V14.01,2013-05-01 09:53:00,
2013-05-01 02:58:00,29.5,26.4,30.56,SW,225,0.0,0.0,88,0.00,,---,0.00,VWS V14.01,2013-05-01 09:58:00,
2013-05-01 03:03:00,29.5,26.4,30.56,SW,225,0.0,0.0,88,0.00,,---,0.00,VWS V14.01,2013-05-01 10:03:00,
2013-05-01 03:09:00,29.5,26.4,30.56,SW,225,0.0,0.0,88,0.00,,---,0.00,VWS V14.01,2013-05-01 10:09:00,
2013-05-01 03:14:00,29.5,26.4,30.56,SW,225,0.0,0.0,88,0.00,,---,0.00,VWS V14.01,2013-05-01 10:14:00,
2013-05-01 03:19:00,29.5,26.4,30.59,SW,225,0.0,0.0,88,0.00,,---,0.00,VWS V14.01,2013-05-01 10:19:00,
2013-05-01 03:24:00,29.5,26.4,30.59,SW,225,0.0,0.0,88,0.00,,---,0.00,VWS V14.01,2013-05-01 10:24:00,
2013-05-01 03:29:00,29.5,26.4,30.59,SW,225,0.0,0.0,88,0.00,,---,0.00,VWS V14.01,2013-05-01 10:29:00,
2013-05-01 03:34:00,29.5,26.4,30.53,SW,225,0.0,0.0,88,0.00,,---,0.00,VWS V14.01,2013-05-01 10:34:00,
2013-05-01 03:39:00,29.5,26.6,30.53,SW,225,0.0,0.0,89,0.00,,---,0.00,VWS V14.01,2013-05-01 10:39:00,
2013-05-01 03:44:00,29.7,26.8,30.53,SW,225,0.0,0.0,89,0.00,,---,0.00,VWS V14.01,2013-05-01 10:44:00,
2013-05-01 03:49:00,29.7,26.8,30.56,West,270,0.0,0.0,89,0.00,,---,0.00,VWS V14.01,2013-05-01 10:49:00,
2013-05-01 03:54:00,29.7,26.8,30.56,West,270,0.0,0.0,89,0.00,,---,0.00,VWS V14.01,2013-05-01 10:54:00,
2013-05-01 03:59:00,29.8,27.0,30.56,West,270,0.0,0.0,89,0.00,,---,0.00,VWS V14.01,2013-05-01 10:59:00,
2013-05-01 04:04:00,29.8,27.0,30.56,West,270,0.0,0.0,89,0.00,,---,0.00,VWS V14.01,2013-05-01 11:04:00,
2013-05-01 04:09:00,30.0,27.2,30.56,West,270,0.0,0.0,89,0.00,,---,0.00,VWS V14.01,2013-05-01 11:09:00,
2013-05-01 04:14:00,30.0,27.2,30.56,West,270,0.0,0.0,89,0.00,,---,0.00,VWS V14.01,2013-05-01 11:14:00,
2013-05-01 04:19:00,30.2,27.4,30.56,NW,315,0.0,0.0,89,0.00,,---,0.00,VWS V14.01,2013-05-01 11:19:00,
2013-05-01 04:24:00,30.2,27.1,30.56,NW,315,0.0,0.0,88,0.00,,---,0.00,VWS V14.01,2013-05-01 11:24:00,
2013-05-01 04:29:00,30.4,27.3,30.56,NW,315,0.0,0.0,88,0.00,,---,0.00,VWS V14.01,2013-05-01 11:29:00,
2013-05-01 04:34:00,30.4,27.3,30.56,NW,315,0.0,0.0,88,0.00,,---,0.00,VWS V14.01,2013-05-01 11:34:00,
2013-05-01 04:39:00,30.4,27.3,30.56,North,0,0.0,0.0,88,0.00,,---,0.00,VWS V14.01,2013-05-01 11:39:00,
2013-05-01 04:44:00,30.6,27.7,30.56,North,0,0.0,0.0,89,0.00,,---,0.00,VWS V14.01,2013-05-01 11:44:00,
2013-05-01 04:49:00,30.6,27.7,30.56,North,0,0.0,0.0,89,0.00,,---,0.00,VWS V14.01,2013-05-01 11:49:00,
2013-05-01 04:54:00,30.6,27.7,30.56,North,0,0.0,0.0,89,0.00,,---,0.00,VWS V14.01,2013-05-01 11:54:00,
2013-05-01 04:59:00,30.6,27.7,30.56,North,0,0.0,0.0,89,0.00,,---,0.00,VWS V14.01,2013-05-01 11:59:00,
2013-05-01 05:04:00,30.6,28.0,30.53,NNE,22,0.0,0.0,90,0.00,,---,0.00,VWS V14.01,2013-05-01 12:04:00,
2013-05-01 05:09:00,30.4,27.8,30.53,NNE,22,0.0,0.0,90,0.00,,---,0.00,VWS V14.01,2013-05-01 12:09:00,
2013-05-01 05:14:00,30.4,28.1,30.53,NNE,22,0.0,0.0,91,0.00,,---,0.00,VWS V14.01,2013-05-01 12:14:00,
2013-05-01 05:20:00,30.4,28.1,30.56,East,90,0.0,1.3,91,0.00,,---,0.00,VWS V14.01,2013-05-01 12:20:00,
2013-05-01 05:25:00,30.2,28.2,30.56,East,90,0.0,0.0,92,0.00,,---,0.00,VWS V14.01,2013-05-01 12:25:00,
2013-05-01 05:30:00,30.2,28.2,30.56,East,90,0.0,0.0,92,0.00,,---,0.00,VWS V14.01,2013-05-01 12:30:00,
2013-05-01 05:35:00,30.2,28.2,30.56,East,90,0.0,0.0,92,0.00,,---,0.00,VWS V14.01,2013-05-01 12:35:00,
2013-05-01 05:40:00,30.0,28.2,30.56,East,90,0.0,0.0,93,0.00,,---,0.00,VWS V14.01,2013-05-01 12:40:00,
2013-05-01 05:45:00,30.0,28.2,30.56,East,90,0.0,0.0,93,0.00,,---,0.00,VWS V14.01,2013-05-01 12:45:00,
2013-05-01 05:50:00,30.0,28.2,30.56,East,90,0.0,0.0,93,0.00,,---,0.00,VWS V14.01,2013-05-01 12:50:00,
2013-05-01 05:55:00,30.0,28.2,30.56,East,90,0.0,0.0,93,0.00,,---,0.00,VWS V14.01,2013-05-01 12:55:00,
2013-05-01 06:00:00,30.0,28.5,30.56,East,90,0.0,0.0,94,0.00,,---,0.00,VWS V14.01,2013-05-01 13:00:00,
2013-05-01 06:05:00,30.0,28.5,30.56,East,90,0.0,0.0,94,0.00,,---,0.00,VWS V14.01,2013-05-01 13:05:00,
2013-05-01 06:10:00,30.2,28.7,30.56,East,90,0.0,0.0,94,0.00,,---,0.00,VWS V14.01,2013-05-01 13:10:00,
2013-05-01 06:15:00,30.2,28.9,30.56,East,90,0.0,0.0,95,0.00,,---,0.00,VWS V14.01,2013-05-01 13:15:00,
2013-05-01 06:20:00,30.4,28.9,30.56,East,90,0.0,0.0,94,0.00,,---,0.00,VWS V14.01,2013-05-01 13:20:00,
2013-05-01 06:25:00,30.4,28.9,30.56,East,90,0.0,0.0,94,0.00,,---,0.00,VWS V14.01,2013-05-01 13:25:00,
2013-05-01 06:30:00,30.4,28.9,30.56,East,90,0.0,0.0,94,0.00,,---,0.00,VWS V14.01,2013-05-01 13:30:00,
2013-05-01 06:35:00,30.6,29.0,30.56,East,90,0.0,0.0,94,0.00,,---,0.00,VWS V14.01,2013-05-01 13:35:00,
2013-05-01 06:40:00,30.7,29.5,30.56,East,90,0.0,0.0,95,0.00,,---,0.00,VWS V14.01,2013-05-01 13:40:00,
2013-05-01 06:45:00,30.9,29.7,30.56,SSW,202,0.0,0.0,95,0.00,,---,0.00,VWS V14.01,2013-05-01 13:45:00,
2013-05-01 06:50:00,31.3,30.0,30.56,SSW,202,0.0,0.0,95,0.00,,---,0.00,VWS V14.01,2013-05-01 13:50:00,
2013-05-01 06:55:00,31.5,30.2,30.56,NE,45,0.0,0.0,95,0.00,,---,0.00,VWS V14.01,2013-05-01 13:55:00,
2013-05-01 07:00:00,31.6,30.4,30.56,NE,45,0.0,0.0,95,0.00,,---,0.00,VWS V14.01,2013-05-01 14:00:00,
2013-05-01 07:05:00,32.0,30.7,30.56,WNW,292,0.0,0.0,95,0.00,,---,0.00,VWS V14.01,2013-05-01 14:05:00,
2013-05-01 07:10:00,32.2,31.2,30.56,WSW,248,0.0,0.0,96,0.00,,---,0.00,VWS V14.01,2013-05-01 14:10:00,
2013-05-01 07:16:00,32.4,31.4,30.56,West,270,0.0,0.0,96,0.00,,---,0.00,VWS V14.01,2013-05-01 14:16:00,
2013-05-01 07:21:00,32.7,31.7,30.56,WSW,248,0.0,0.9,96,0.00,,---,0.00,VWS V14.01,2013-05-01 14:21:00,
2013-05-01 07:26:00,32.7,31.5,30.56,SSW,202,0.0,0.0,95,0.00,,---,0.00,VWS V14.01,2013-05-01 14:26:00,
2013-05-01 07:31:00,33.1,31.8,30.56,NW,315,0.0,0.0,95,0.00,,---,0.00,VWS V14.01,2013-05-01 14:31:00,
2013-05-01 07:36:00,33.6,32.3,30.59,WNW,292,0.0,0.0,95,0.00,,---,0.00,VWS V14.01,2013-05-01 14:36:00,
2013-05-01 07:41:00,34.2,32.9,30.59,WNW,292,0.0,0.0,95,0.00,,---,0.00,VWS V14.01,2013-05-01 14:41:00,
2013-05-01 07:46:00,34.7,33.4,30.59,SE,135,0.0,0.0,95,0.00,,---,0.00,VWS V14.01,2013-05-01 14:46:00,
2013-05-01 07:51:00,34.5,33.2,30.59,West,270,2.0,2.0,95,0.00,,---,0.00,VWS V14.01,2013-05-01 14:51:00,
2013-05-01 07:56:00,34.9,33.9,30.59,West,270,1.1,1.1,96,0.00,,---,0.00,VWS V14.01,2013-05-01 14:56:00,
2013-05-01 08:01:00,35.8,34.8,30.59,West,270,0.0,0.0,96,0.00,,---,0.00,VWS V14.01,2013-05-01 15:01:00,
2013-05-01 08:06:00,37.0,36.0,30.59,WSW,248,0.0,0.0,96,0.00,,---,0.00,VWS V14.01,2013-05-01 15:06:00,
2013-05-01 08:11:00,37.9,36.9,30.59,West,270,0.0,0.0,96,0.00,,---,0.00,VWS V14.01,2013-05-01 15:11:00,
2013-05-01 08:16:00,38.5,37.2,30.59,West,270,2.0,2.0,95,0.00,,---,0.00,VWS V14.01,2013-05-01 15:16:00,
2013-05-01 08:21:00,40.3,39.0,30.59,WSW,248,0.0,0.0,95,0.00,,---,0.00,VWS V14.01,2013-05-01 15:21:00,
2013-05-01 08:26:00,43.3,41.5,30.59,South,180,0.0,0.0,93,0.00,,---,0.00,VWS V14.01,2013-05-01 15:26:00,
2013-05-01 08:31:00,45.9,43.1,30.59,South,180,2.0,2.0,90,0.00,,---,0.00,VWS V14.01,2013-05-01 15:31:00,
2013-05-01 08:36:00,47.3,43.0,30.59,SW,225,0.0,2.2,85,0.00,,---,0.00,VWS V14.01,2013-05-01 15:36:00,
2013-05-01 08:41:00,48.2,41.0,30.59,SSE,158,1.1,1.1,76,0.00,,---,0.00,VWS V14.01,2013-05-01 15:41:00,
2013-05-01 08:46:00,48.9,39.2,30.59,WSW,248,0.0,0.0,69,0.00,,---,0.00,VWS V14.01,2013-05-01 15:46:00,
2013-05-01 08:51:00,50.4,39.5,30.59,South,180,0.0,0.0,66,0.00,,---,0.00,VWS V14.01,2013-05-01 15:51:00,
2013-05-01 08:56:00,51.4,40.1,30.59,SSE,158,0.0,0.0,65,0.00,,---,0.00,VWS V14.01,2013-05-01 15:56:00,
2013-05-01 09:01:00,52.7,38.3,30.59,SW,225,0.0,0.0,58,0.00,,---,0.00,VWS V14.01,2013-05-01 16:01:00,
2013-05-01 09:06:00,54.3,39.4,30.59,WSW,248,0.0,0.0,57,0.00,,---,0.00,VWS V14.01,2013-05-01 16:06:00,
2013-05-01 09:11:00,55.0,38.7,30.59,West,270,0.0,0.0,54,0.00,,---,0.00,VWS V14.01,2013-05-01 16:11:00,
2013-05-01 09:17:00,55.0,36.2,30.59,West,270,2.5,2.5,49,0.00,,---,0.00,VWS V14.01,2013-05-01 16:17:00,
2013-05-01 09:22:00,54.5,35.2,30.59,West,270,1.6,2.0,48,0.00,,---,0.00,VWS V14.01,2013-05-01 16:22:00,
2013-05-01 09:27:00,55.8,36.4,30.59,South,180,1.1,1.6,48,0.00,,---,0.00,VWS V14.01,2013-05-01 16:27:00,
2013-05-01 09:32:00,57.0,37.5,30.59,NW,315,0.0,0.0,48,0.00,,---,0.00,VWS V14.01,2013-05-01 16:32:00,
2013-05-01 09:37:00,58.5,37.8,30.59,WSW,248,2.0,2.7,46,0.00,,---,0.00,VWS V14.01,2013-05-01 16:37:00,
2013-05-01 09:42:00,59.5,36.5,30.59,NE,45,2.9,2.9,42,0.00,,---,0.00,VWS V14.01,2013-05-01 16:42:00,
2013-05-01 09:47:00,59.7,36.6,30.59,ENE,68,2.7,3.1,42,0.00,,---,0.00,VWS V14.01,2013-05-01 16:47:00,
2013-05-01 09:52:00,59.4,35.7,30.59,WSW,248,2.7,3.1,41,0.00,,---,0.00,VWS V14.01,2013-05-01 16:52:00,
2013-05-01 09:57:00,59.0,34.1,30.59,North,0,1.1,3.1,39,0.00,,---,0.00,VWS V14.01,2013-05-01 16:57:00,
2013-05-01 10:02:00,61.0,37.1,30.59,SW,225,0.0,2.2,41,0.00,,---,0.00,VWS V14.01,2013-05-01 17:02:00,
2013-05-01 10:07:00,61.5,38.8,30.59,ENE,68,0.0,0.0,43,0.00,,---,0.00,VWS V14.01,2013-05-01 17:07:00,
2013-05-01 10:12:00,62.1,35.5,30.59,ENE,68,2.2,2.7,37,0.00,,---,0.00,VWS V14.01,2013-05-01 17:12:00,
2013-05-01 10:17:00,61.9,35.3,30.59,ESE,112,1.6,4.0,37,0.00,,---,0.00,VWS V14.01,2013-05-01 17:17:00,
2013-05-01 10:22:00,63.7,37.6,30.59,West,270,0.0,1.6,38,0.00,,---,0.00,VWS V14.01,2013-05-01 17:22:00,
2013-05-01 10:27:00,63.9,35.7,30.59,SSW,202,1.3,2.7,35,0.00,,---,0.00,VWS V14.01,2013-05-01 17:27:00,
2013-05-01 10:32:00,63.9,35.7,30.59,ENE,68,0.0,0.0,35,0.00,,---,0.00,VWS V14.01,2013-05-01 17:32:00,
2013-05-01 10:37:00,63.3,34.5,30.56,SSW,202,2.7,2.7,34,0.00,,---,0.00,VWS V14.01,2013-05-01 17:37:00,
2013-05-01 10:42:00,63.9,35.7,30.56,WNW,292,2.2,2.2,35,0.00,,---,0.00,VWS V14.01,2013-05-01 17:42:00,
2013-05-01 10:47:00,65.1,36.8,30.56,NNE,22,0.0,0.0,35,0.00,,---,0.00,VWS V14.01,2013-05-01 17:47:00,
2013-05-01 10:52:00,65.3,34.7,30.56,NNE,22,2.7,2.7,32,0.00,,---,0.00,VWS V14.01,2013-05-01 17:52:00,
2013-05-01 10:57:00,65.5,35.6,30.56,West,270,3.6,3.6,33,0.00,,---,0.00,VWS V14.01,2013-05-01 17:57:00,
2013-05-01 11:02:00,65.1,35.3,30.56,West,270,2.2,2.2,33,0.00,,---,0.00,VWS V14.01,2013-05-01 18:02:00,
2013-05-01 11:07:00,67.5,37.4,30.56,SW,225,0.0,1.6,33,0.00,,---,0.00,VWS V14.01,2013-05-01 18:07:00,
2013-05-01 11:12:00,67.6,37.5,30.56,West,270,0.0,2.0,33,0.00,,---,0.00,VWS V14.01,2013-05-01 18:12:00,
2013-05-01 11:17:00,68.9,37.8,30.56,West,270,0.0,1.6,32,0.00,,---,0.00,VWS V14.01,2013-05-01 18:17:00,
2013-05-01 11:22:00,69.3,37.4,30.56,WSW,248,2.0,2.5,31,0.00,,---,0.00,VWS V14.01,2013-05-01 18:22:00,
2013-05-01 11:27:00,69.3,34.8,30.56,SW,225,3.1,4.0,28,0.00,,---,0.00,VWS V14.01,2013-05-01 18:27:00,
2013-05-01 11:33:00,69.1,34.6,30.56,SSE,158,1.6,3.6,28,0.00,,---,0.00,VWS V14.01,2013-05-01 18:33:00,
2013-05-01 11:38:00,69.1,33.7,30.56,East,90,2.5,2.5,27,0.00,,---,0.00,VWS V14.01,2013-05-01 18:38:00,
2013-05-01 11:43:00,68.4,33.1,30.56,SW,225,2.5,2.5,27,0.00,,---,0.00,VWS V14.01,2013-05-01 18:43:00,
2013-05-01 11:48:00,68.9,32.6,30.56,NNE,22,2.2,3.1,26,0.00,,---,0.00,VWS V14.01,2013-05-01 18:48:00,
2013-05-01 11:53:00,68.7,31.5,30.56,East,90,3.6,3.6,25,0.00,,---,0.00,VWS V14.01,2013-05-01 18:53:00,
2013-05-01 11:58:00,69.8,32.4,30.56,ESE,112,2.7,2.7,25,0.00,,---,0.00,VWS V14.01,2013-05-01 18:58:00,
2013-05-01 12:03:00,70.2,32.7,30.56,West,270,0.0,2.0,25,0.00,,---,0.00,VWS V14.01,2013-05-01 19:03:00,
2013-05-01 12:08:00,71.4,33.8,30.56,East,90,2.2,2.2,25,0.00,,---,0.00,VWS V14.01,2013-05-01 19:08:00,
2013-05-01 12:13:00,70.9,33.3,30.56,South,180,0.0,2.9,25,0.00,,---,0.00,VWS V14.01,2013-05-01 19:13:00,
2013-05-01 12:18:00,69.8,31.4,30.56,ESE,112,0.0,1.6,24,0.00,,---,0.00,VWS V14.01,2013-05-01 19:18:00,
2013-05-01 12:23:00,69.8,30.4,30.56,NW,315,0.0,1.6,23,0.00,,---,0.00,VWS V14.01,2013-05-01 19:23:00,
2013-05-01 12:28:00,69.1,29.8,30.56,NE,45,2.9,2.9,23,0.00,,---,0.00,VWS V14.01,2013-05-01 19:28:00,
2013-05-01 12:33:00,70.7,33.2,30.56,SW,225,0.0,0.0,25,0.00,,---,0.00,VWS V14.01,2013-05-01 19:33:00,
2013-05-01 12:38:00,70.0,31.6,30.56,SSE,158,1.6,2.0,24,0.00,,---,0.00,VWS V14.01,2013-05-01 19:38:00,
2013-05-01 12:43:00,70.9,31.3,30.56,WSW,248,1.6,1.6,23,0.00,,---,0.00,VWS V14.01,2013-05-01 19:43:00,
2013-05-01 12:48:00,70.9,30.2,30.56,NE,45,3.1,3.6,22,0.00,,---,0.00,VWS V14.01,2013-05-01 19:48:00,
2013-05-01 12:53:00,71.8,30.9,30.56,WNW,292,0.0,0.0,22,0.00,,---,0.00,VWS V14.01,2013-05-01 19:53:00,
2013-05-01 12:58:00,72.9,31.8,30.56,West,270,0.9,0.9,22,0.00,,---,0.00,VWS V14.01,2013-05-01 19:58:00,
2013-05-01 13:03:00,71.2,30.5,30.56,South,180,4.3,4.3,22,0.00,,---,0.00,VWS V14.01,2013-05-01 20:03:00,
2013-05-01 13:08:00,71.2,26.9,30.56,East,90,5.4,5.4,19,0.00,,---,0.00,VWS V14.01,2013-05-01 20:08:00,
2013-05-01 13:13:00,71.4,30.6,30.56,East,90,2.2,4.0,22,0.00,,---,0.00,VWS V14.01,2013-05-01 20:13:00,
2013-05-01 13:18:00,71.8,29.8,30.53,SSE,158,0.0,0.0,21,0.00,,---,0.00,VWS V14.01,2013-05-01 20:18:00,
2013-05-01 13:23:00,71.8,27.3,30.53,North,0,3.1,3.1,19,0.00,,---,0.00,VWS V14.01,2013-05-01 20:23:00,
2013-05-01 13:28:00,70.9,26.6,30.53,ENE,68,0.0,2.0,19,0.00,,---,0.00,VWS V14.01,2013-05-01 20:28:00,
2013-05-01 13:34:00,71.6,29.6,30.56,ESE,112,1.6,2.0,21,0.00,,---,0.00,VWS V14.01,2013-05-01 20:34:00,
2013-05-01 13:39:00,71.1,26.8,30.56,West,270,2.0,3.4,19,0.00,,---,0.00,VWS V14.01,2013-05-01 20:39:00,
2013-05-01 13:44:00,70.5,23.6,30.56,SW,225,5.8,5.8,17,0.00,,---,0.00,VWS V14.01,2013-05-01 20:44:00,
2013-05-01 13:49:00,70.2,23.4,30.53,South,180,2.5,4.3,17,0.00,,---,0.00,VWS V14.01,2013-05-01 20:49:00,
2013-05-01 13:54:00,70.3,26.2,30.53,SW,225,4.0,4.0,19,0.00,,---,0.00,VWS V14.01,2013-05-01 20:54:00,
2013-05-01 13:59:00,69.4,22.8,30.53,SSE,158,0.0,3.4,17,0.00,,---,0.00,VWS V14.01,2013-05-01 20:59:00,
2013-05-01 14:04:00,70.5,23.6,30.53,SSE,158,2.7,4.0,17,0.00,,---,0.00,VWS V14.01,2013-05-01 21:04:00,
2013-05-01 14:09:00,69.8,23.1,30.53,SW,225,6.0,6.0,17,0.00,,---,0.00,VWS V14.01,2013-05-01 21:09:00,
2013-05-01 14:14:00,69.4,22.8,30.53,SSE,158,2.2,4.0,17,0.00,,---,0.00,VWS V14.01,2013-05-01 21:14:00,
2013-05-01 14:19:00,70.0,23.2,30.53,NNE,22,1.6,2.5,17,0.00,,---,0.00,VWS V14.01,2013-05-01 21:19:00,
2013-05-01 14:24:00,70.3,23.5,30.53,SSW,202,3.1,3.1,17,0.00,,---,0.00,VWS V14.01,2013-05-01 21:24:00,
2013-05-01 14:29:00,70.7,23.8,30.53,South,180,1.3,1.3,17,0.00,,---,0.00,VWS V14.01,2013-05-01 21:29:00,
2013-05-01 14:34:00,71.6,23.1,30.56,SE,135,1.6,1.6,16,0.00,,---,0.00,VWS V14.01,2013-05-01 21:34:00,
2013-05-01 14:39:00,71.8,23.2,30.56,WSW,248,2.9,5.4,16,0.00,,---,0.00,VWS V14.01,2013-05-01 21:39:00,
2013-05-01 14:44:00,71.2,24.2,30.56,North,0,4.0,4.0,17,0.00,,---,0.00,VWS V14.01,2013-05-01 21:44:00,
2013-05-01 14:49:00,71.4,24.4,30.53,NW,315,2.2,2.7,17,0.00,,---,0.00,VWS V14.01,2013-05-01 21:49:00,
2013-05-01 14:54:00,71.1,24.1,30.53,ENE,68,2.0,2.9,17,0.00,,---,0.00,VWS V14.01,2013-05-01 21:54:00,
2013-05-01 14:59:00,70.3,23.5,30.53,East,90,2.9,3.4,17,0.00,,---,0.00,VWS V14.01,2013-05-01 21:59:00,
2013-05-01 15:04:00,69.6,22.9,30.53,NNW,338,0.0,3.1,17,0.00,,---,0.00,VWS V14.01,2013-05-01 22:04:00,
2013-05-01 15:09:00,68.9,22.3,30.53,West,270,0.0,1.6,17,0.00,,---,0.00,VWS V14.01,2013-05-01 22:09:00,
2013-05-01 15:14:00,68.5,19.1,30.53,NW,315,2.5,3.1,15,0.00,,---,0.00,VWS V14.01,2013-05-01 22:14:00,
2013-05-01 15:19:00,68.7,19.2,30.53,SW,225,0.0,0.0,15,0.00,,---,0.00,VWS V14.01,2013-05-01 22:19:00,
2013-05-01 15:24:00,69.3,22.6,30.53,SSW,202,0.0,2.2,17,0.00,,---,0.00,VWS V14.01,2013-05-01 22:24:00,
2013-05-01 15:29:00,69.8,23.1,30.53,SW,225,1.6,3.6,17,0.00,,---,0.00,VWS V14.01,2013-05-01 22:29:00,
2013-05-01 15:34:00,70.0,23.2,30.53,North,0,2.5,2.5,17,0.00,,---,0.00,VWS V14.01,2013-05-01 22:34:00,
2013-05-01 15:39:00,70.2,18.8,30.53,South,180,2.9,2.9,14,0.00,,---,0.00,VWS V14.01,2013-05-01 22:39:00,
2013-05-01 15:44:00,70.3,18.9,30.53,NNE,22,1.6,3.6,14,0.00,,---,0.00,VWS V14.01,2013-05-01 22:44:00,
2013-05-01 15:49:00,70.7,23.8,30.50,SSE,158,1.1,2.7,17,0.00,,---,0.00,VWS V14.01,2013-05-01 22:49:00,
2013-05-01 15:54:00,71.6,23.1,30.50,WNW,292,0.0,0.0,16,0.00,,---,0.00,VWS V14.01,2013-05-01 22:54:00,
2013-05-01 15:59:00,71.6,23.1,30.50,NNE,22,0.9,2.5,16,0.00,,---,0.00,VWS V14.01,2013-05-01 22:59:00,
2013-05-01 16:04:00,71.6,23.1,30.50,NNE,22,0.9,0.9,16,0.00,,---,0.00,VWS V14.01,2013-05-01 23:04:00,
2013-05-01 16:09:00,71.6,23.1,30.50,ENE,68,1.6,2.0,16,0.00,,---,0.00,VWS V14.01,2013-05-01 23:09:00,
2013-05-01 16:14:00,71.6,23.1,30.50,NW,315,0.0,2.2,16,0.00,,---,0.00,VWS V14.01,2013-05-01 23:14:00,
2013-05-01 16:20:00,72.0,23.4,30.50,ENE,68,3.1,3.1,16,0.00,,---,0.00,VWS V14.01,2013-05-01 23:20:00,
2013-05-01 16:25:00,71.4,24.4,30.50,NNE,22,0.0,0.0,17,0.00,,---,0.00,VWS V14.01,2013-05-01 23:25:00,
2013-05-01 16:30:00,71.4,24.4,30.50,NNE,22,0.0,2.7,17,0.00,,---,0.00,VWS V14.01,2013-05-01 23:30:00,
2013-05-01 16:35:00,72.0,23.4,30.47,North,0,1.3,1.3,16,0.00,,---,0.00,VWS V14.01,2013-05-01 23:35:00,
2013-05-01 16:40:00,72.1,23.5,30.47,West,270,1.1,1.6,16,0.00,,---,0.00,VWS V14.01,2013-05-01 23:40:00,
2013-05-01 16:45:00,72.7,23.9,30.47,NE,45,2.7,2.7,16,0.00,,---,0.00,VWS V14.01,2013-05-01 23:45:00,
2013-05-01 16:50:00,72.7,23.9,30.50,East,90,1.3,1.3,16,0.00,,---,0.00,VWS V14.01,2013-05-01 23:50:00,
2013-05-01 16:55:00,72.9,24.1,30.50,NNW,338,2.0,2.2,16,0.00,,---,0.00,VWS V14.01,2013-05-01 23:55:00,
2013-05-01 17:00:00,73.4,24.5,30.50,WNW,292,0.0,0.0,16,0.00,,---,0.00,VWS V14.01,2013-05-02 00:00:00,
2013-05-01 17:05:00,72.3,23.6,30.50,West,270,2.0,2.7,16,0.00,,---,0.00,VWS V14.01,2013-05-02 00:05:00,
2013-05-01 17:10:00,72.3,23.6,30.50,NNE,22,0.0,0.0,16,0.00,,---,0.00,VWS V14.01,2013-05-02 00:10:00,
2013-05-01 17:15:00,72.1,23.5,30.50,NE,45,1.6,2.7,16,0.00,,---,0.00,VWS V14.01,2013-05-02 00:15:00,
2013-05-01 17:20:00,71.2,24.2,30.47,East,90,1.6,2.9,17,0.00,,---,0.00,VWS V14.01,2013-05-02 00:20:00,
2013-05-01 17:25:00,71.2,24.2,30.47,ENE,68,1.3,2.0,17,0.00,,---,0.00,VWS V14.01,2013-05-02 00:25:00,
2013-05-01 17:30:00,70.9,23.9,30.47,NE,45,2.2,2.5,17,0.00,,---,0.00,VWS V14.01,2013-05-02 00:30:00,
2013-05-01 17:35:00,70.5,23.6,30.50,ENE,68,0.0,0.0,17,0.00,,---,0.00,VWS V14.01,2013-05-02 00:35:00,
2013-05-01 17:40:00,70.5,23.6,30.50,North,0,0.0,0.0,17,0.00,,---,0.00,VWS V14.01,2013-05-02 00:40:00,
2013-05-01 17:45:00,69.3,19.7,30.50,East,90,1.6,2.0,15,0.00,,---,0.00,VWS V14.01,2013-05-02 00:45:00,
2013-05-01 17:50:00,68.4,21.9,30.50,ENE,68,1.6,2.0,17,0.00,,---,0.00,VWS V14.01,2013-05-02 00:50:00,
2013-05-01 17:55:00,67.6,21.3,30.50,NNW,338,0.0,1.6,17,0.00,,---,0.00,VWS V14.01,2013-05-02 00:55:00,
2013-05-01 18:00:00,67.1,20.9,30.50,North,0,0.0,0.0,17,0.00,,---,0.00,VWS V14.01,2013-05-02 01:00:00,
2013-05-01 18:05:00,66.7,20.6,30.47,NW,315,0.0,0.0,17,0.00,,---,0.00,VWS V14.01,2013-05-02 01:05:00,
2013-05-01 18:10:00,66.4,20.3,30.47,ENE,68,2.2,2.2,17,0.00,,---,0.00,VWS V14.01,2013-05-02 01:10:00,
2013-05-01 18:15:00,66.2,24.0,30.47,NW,315,0.0,0.0,20,0.00,,---,0.00,VWS V14.01,2013-05-02 01:15:00,
2013-05-01 18:21:00,65.8,23.7,30.50,NNW,338,0.0,1.6,20,0.00,,---,0.00,VWS V14.01,2013-05-02 01:21:00,
2013-05-01 18:26:00,65.7,23.5,30.50,NNW,338,0.0,0.0,20,0.00,,---,0.00,VWS V14.01,2013-05-02 01:26:00,
2013-05-01 18:31:00,65.5,26.7,30.50,North,0,1.3,4.3,23,0.00,,---,0.00,VWS V14.01,2013-05-02 01:31:00,
2013-05-01 18:36:00,64.9,26.3,30.50,NNE,22,1.1,1.6,23,0.00,,---,0.00,VWS V14.01,2013-05-02 01:36:00,
2013-05-01 18:41:00,64.6,26.0,30.50,NNE,22,0.0,1.3,23,0.00,,---,0.00,VWS V14.01,2013-05-02 01:41:00,
2013-05-01 18:46:00,64.4,26.9,30.50,NNW,338,2.0,4.3,24,0.00,,---,0.00,VWS V14.01,2013-05-02 01:46:00,
2013-05-01 18:51:00,64.2,26.7,30.47,NNW,338,0.9,2.5,24,0.00,,---,0.00,VWS V14.01,2013-05-02 01:51:00,
2013-05-01 18:56:00,63.9,26.4,30.47,NNW,338,0.0,0.0,24,0.00,,---,0.00,VWS V14.01,2013-05-02 01:56:00,
2013-05-01 19:01:00,63.3,26.9,30.47,NNW,338,0.0,0.0,25,0.00,,---,0.00,VWS V14.01,2013-05-02 02:01:00,
2013-05-01 19:06:00,63.1,26.8,30.50,North,0,0.0,0.0,25,0.00,,---,0.00,VWS V14.01,2013-05-02 02:06:00,
2013-05-01 19:11:00,62.8,26.5,30.50,ENE,68,0.0,2.9,25,0.00,,---,0.00,VWS V14.01,2013-05-02 02:11:00,
2013-05-01 19:16:00,62.4,27.1,30.50,NW,315,0.0,0.0,26,0.00,,---,0.00,VWS V14.01,2013-05-02 02:16:00,
2013-05-01 19:21:00,62.1,26.8,30.50,NNW,338,1.1,2.0,26,0.00,,---,0.00,VWS V14.01,2013-05-02 02:21:00,
2013-05-01 19:26:00,61.9,26.6,30.50,ENE,68,0.0,0.0,26,0.00,,---,0.00,VWS V14.01,2013-05-02 02:26:00,
2013-05-01 19:31:00,61.5,27.2,30.50,WNW,292,0.0,0.0,27,0.00,,---,0.00,VWS V14.01,2013-05-02 02:31:00,
2013-05-01 19:36:00,61.0,26.8,30.50,NNW,338,0.0,0.0,27,0.00,,---,0.00,VWS V14.01,2013-05-02 02:36:00,
2013-05-01 19:41:00,60.4,27.2,30.50,NNW,338,0.0,0.0,28,0.00,,---,0.00,VWS V14.01,2013-05-02 02:41:00,
2013-05-01 19:46:00,59.9,26.7,30.50,NNW,338,0.0,0.0,28,0.00,,---,0.00,VWS V14.01,2013-05-02 02:46:00,
2013-05-01 19:52:00,59.4,27.1,30.47,NW,315,0.0,0.0,29,0.00,,---,0.00,VWS V14.01,2013-05-02 02:52:00,
2013-05-01 19:57:00,58.8,27.5,30.47,NW,315,0.0,0.0,30,0.00,,---,0.00,VWS V14.01,2013-05-02 02:57:00,
2013-05-01 20:02:00,58.5,28.0,30.47,NW,315,0.0,0.0,31,0.00,,---,0.00,VWS V14.01,2013-05-02 03:02:00,
2013-05-01 20:07:00,57.9,29.0,30.47,NW,315,0.0,0.0,33,0.00,,---,0.00,VWS V14.01,2013-05-02 03:07:00,
2013-05-01 20:12:00,57.6,29.4,30.47,North,0,0.0,0.9,34,0.00,,---,0.00,VWS V14.01,2013-05-02 03:12:00,
2013-05-01 20:17:00,57.2,29.8,30.47,West,270,0.0,0.0,35,0.00,,---,0.00,VWS V14.01,2013-05-02 03:17:00,
2013-05-01 20:22:00,57.0,29.7,30.47,ENE,68,2.9,2.9,35,0.00,,---,0.00,VWS V14.01,2013-05-02 03:22:00,
2013-05-01 20:27:00,56.8,29.5,30.47,WNW,292,0.0,0.0,35,0.00,,---,0.00,VWS V14.01,2013-05-02 03:27:00,
2013-05-01 20:32:00,56.7,29.3,30.47,WNW,292,0.0,0.0,35,0.00,,---,0.00,VWS V14.01,2013-05-02 03:32:00,
2013-05-01 20:37:00,56.3,29.7,30.47,WNW,292,0.0,0.0,36,0.00,,---,0.00,VWS V14.01,2013-05-02 03:37:00,
2013-05-01 20:42:00,55.9,29.4,30.47,WNW,292,0.0,0.0,36,0.00,,---,0.00,VWS V14.01,2013-05-02 03:42:00,
2013-05-01 20:47:00,55.8,31.2,30.47,WSW,248,0.0,0.0,39,0.00,,---,0.00,VWS V14.01,2013-05-02 03:47:00,
2013-05-01 20:52:00,55.2,32.5,30.50,West,270,0.0,0.0,42,0.00,,---,0.00,VWS V14.01,2013-05-02 03:52:00,
2013-05-01 20:57:00,54.7,32.1,30.50,West,270,0.0,0.0,42,0.00,,---,0.00,VWS V14.01,2013-05-02 03:57:00,
2013-05-01 21:01:00,54.3,32.3,30.50,West,270,0.0,0.0,43,0.00,,---,0.00,VWS V14.01,2013-05-02 04:01:00,
2013-05-01 21:02:00,54.1,32.7,30.50,West,270,0.0,0.0,44,0.00,,---,0.00,VWS V14.01,2013-05-02 04:02:00,
2013-05-01 21:07:00,53.6,32.8,30.50,West,270,0.0,0.0,45,0.00,,---,0.00,VWS V14.01,2013-05-02 04:07:00,
2013-05-01 21:12:00,53.2,33.0,30.50,West,270,0.0,0.0,46,0.00,,---,0.00,VWS V14.01,2013-05-02 04:12:00,
2013-05-01 21:17:00,52.9,33.2,30.50,West,270,0.0,0.0,47,0.00,,---,0.00,VWS V14.01,2013-05-02 04:17:00,
2013-05-01 21:22:00,52.5,33.4,30.53,West,270,0.0,0.0,48,0.00,,---,0.00,VWS V14.01,2013-05-02 04:22:00,
2013-05-01 21:27:00,52.2,33.1,30.53,West,270,0.0,0.0,48,0.00,,---,0.00,VWS V14.01,2013-05-02 04:27:00,
2013-05-01 21:32:00,51.6,32.6,30.56,West,270,0.0,0.0,48,0.00,,---,0.00,VWS V14.01,2013-05-02 04:32:00,
2013-05-01 21:37:00,51.4,32.9,30.56,West,270,0.0,0.0,49,0.00,,---,0.00,VWS V14.01,2013-05-02 04:37:00,
2013-05-01 21:42:00,51.1,33.1,30.56,West,270,0.0,0.0,50,0.00,,---,0.00,VWS V14.01,2013-05-02 04:42:00,
2013-05-01 21:47:00,50.7,33.3,30.56,West,270,0.0,0.0,51,0.00,,---,0.00,VWS V14.01,2013-05-02 04:47:00,
2013-05-01 21:52:00,50.4,32.9,30.56,SW,225,0.0,0.0,51,0.00,,---,0.00,VWS V14.01,2013-05-02 04:52:00,
2013-05-01 21:57:00,50.2,32.8,30.56,WSW,248,0.0,0.0,51,0.00,,---,0.00,VWS V14.01,2013-05-02 04:57:00,
2013-05-01 22:02:00,50.2,33.7,30.56,West,270,0.0,0.0,53,0.00,,---,0.00,VWS V14.01,2013-05-02 05:02:00,
2013-05-01 22:08:00,49.8,33.9,30.56,West,270,0.0,0.0,54,0.00,,---,0.00,VWS V14.01,2013-05-02 05:08:00,
2013-05-01 22:13:00,49.5,33.5,30.56,West,270,0.0,0.0,54,0.00,,---,0.00,VWS V14.01,2013-05-02 05:13:00,
2013-05-01 22:18:00,49.3,33.8,30.53,West,270,0.0,0.0,55,0.00,,---,0.00,VWS V14.01,2013-05-02 05:18:00,
2013-05-01 22:23:00,48.9,33.9,30.53,West,270,0.0,0.0,56,0.00,,---,0.00,VWS V14.01,2013-05-02 05:23:00,
2013-05-01 22:28:00,48.6,33.6,30.53,West,270,0.0,0.0,56,0.00,,---,0.00,VWS V14.01,2013-05-02 05:28:00,
2013-05-01 22:33:00,48.4,33.9,30.53,West,270,0.0,0.0,57,0.00,,---,0.00,VWS V14.01,2013-05-02 05:33:00,
2013-05-01 22:38:00,48.0,34.4,30.53,West,270,0.0,0.0,59,0.00,,---,0.00,VWS V14.01,2013-05-02 05:38:00,
2013-05-01 22:43:00,47.8,34.2,30.53,West,270,0.0,0.0,59,0.00,,---,0.00,VWS V14.01,2013-05-02 05:43:00,
2013-05-01 22:48:00,47.3,34.1,30.53,West,270,0.0,0.0,60,0.00,,---,0.00,VWS V14.01,2013-05-02 05:48:00,
2013-05-01 22:53:00,47.1,33.1,30.53,West,270,0.0,0.0,58,0.00,,---,0.00,VWS V14.01,2013-05-02 05:53:00,
2013-05-01 22:58:00,47.1,34.4,30.53,West,270,0.0,0.0,61,0.00,,---,0.00,VWS V14.01,2013-05-02 05:58:00,
2013-05-01 23:03:00,46.8,34.8,30.56,West,270,0.0,0.0,63,0.00,,---,0.00,VWS V14.01,2013-05-02 06:03:00,
2013-05-01 23:08:00,46.4,34.1,30.56,West,270,0.0,0.0,62,0.00,,---,0.00,VWS V14.01,2013-05-02 06:08:00,
2013-05-01 23:13:00,46.0,34.2,30.56,West,270,0.0,0.0,63,0.00,,---,0.00,VWS V14.01,2013-05-02 06:13:00,
2013-05-01 23:18:00,45.7,33.8,30.56,West,270,0.0,0.0,63,0.00,,---,0.00,VWS V14.01,2013-05-02 06:18:00,
2013-05-01 23:23:00,45.7,33.8,30.56,West,270,0.0,0.0,63,0.00,,---,0.00,VWS V14.01,2013-05-02 06:23:00,
2013-05-01 23:29:00,45.3,34.3,30.56,West,270,0.0,0.0,65,0.00,,---,0.00,VWS V14.01,2013-05-02 06:29:00,
2013-05-01 23:34:00,45.0,34.7,30.56,West,270,0.0,0.0,67,0.00,,---,0.00,VWS V14.01,2013-05-02 06:34:00,
2013-05-01 23:39:00,44.8,34.1,30.56,West,270,0.0,0.0,66,0.00,,---,0.00,VWS V14.01,2013-05-02 06:39:00,
2013-05-01 23:44:00,44.6,34.0,30.56,West,270,0.0,0.0,66,0.00,,---,0.00,VWS V14.01,2013-05-02 06:44:00,
2013-05-01 23:49:00,44.4,34.2,30.53,West,270,0.0,0.0,67,0.00,,---,0.00,VWS V14.01,2013-05-02 06:49:00,
2013-05-01 23:54:00,44.2,34.4,30.53,West,270,0.0,0.0,68,0.00,,---,0.00,VWS V14.01,2013-05-02 06:54:00,
2013-05-01 23:59:00,44.1,34.2,30.53,WSW,248,0.0,0.0,68,0.00,,---,0.00,VWS V14.01,2013-05-02 06:59:00,